Time;durP1;ratioP1;P1;durP2;ratioP2;P2;SDS_P1;SDS_P2;PMS_P1;PMS_P2;Temp;Humidity;BMP_temperature;BMP_pressure;BME280_temperature;BME280_humidity;BME280_pressure;Samples;Min_cycle;Max_cycle;Signal;HPM_P1;HPM_P2
2023/08/04 00:00:37;;;;;;;8.07;2.97;;;16.60;86.30;;;;;;5072642;28;20641;-48
2023/08/04 00:03:03;;;;;;;9.88;3.58;;;16.60;86.40;;;;;;5073267;28;20033;-50
2023/08/04 00:05:30;;;;;;;5.68;2.45;;;16.60;86.20;;;;;;5072544;28;20093;-51
2023/08/04 00:07:59;;;;;;;5.13;2.70;;;16.50;86.20;;;;;;5055340;28;20021;-49
2023/08/04 00:10:28;;;;;;;7.68;3.03;;;16.60;86.20;;;;;;5073063;28;20032;-49
2023/08/04 00:12:55;;;;;;;8.23;2.42;;;16.60;86.30;;;;;;5073089;28;20037;-49
2023/08/04 00:15:22;;;;;;;12.20;2.30;;;16.60;86.40;;;;;;5072442;28;20032;-49
2023/08/04 00:17:49;;;;;;;7.35;2.83;;;16.60;86.40;;;;;;5073099;28;20115;-49
2023/08/04 00:20:16;;;;;;;8.35;3.28;;;16.60;86.50;;;;;;5073119;28;20449;-49
2023/08/04 00:22:46;;;;;;;7.75;2.58;;;16.60;86.60;;;;;;5072422;28;20361;-50
2023/08/04 00:25:11;;;;;;;6.88;2.33;;;16.60;86.80;;;;;;5072977;28;20107;-49
2023/08/04 00:27:37;;;;;;;6.57;2.65;;;16.60;86.90;;;;;;5054973;28;20112;-52
2023/08/04 00:30:04;;;;;;;7.90;2.65;;;16.70;87.10;;;;;;5072816;28;20063;-49
2023/08/04 00:32:31;;;;;;;8.18;2.58;;;16.70;87.10;;;;;;5072887;28;20020;-50
2023/08/04 00:34:56;;;;;;;6.43;2.50;;;16.70;87.00;;;;;;5072008;28;20044;-50
2023/08/04 00:37:23;;;;;;;5.00;2.15;;;16.60;87.10;;;;;;5072924;28;20448;-51
2023/08/04 00:39:50;;;;;;;5.13;2.53;;;16.60;87.20;;;;;;5055111;28;20067;-49
2023/08/04 00:42:17;;;;;;;6.82;2.60;;;16.60;87.20;;;;;;5071917;28;20056;-51
2023/08/04 00:44:44;;;;;;;7.90;2.58;;;16.60;87.20;;;;;;5072256;28;20028;-51
2023/08/04 00:47:14;;;;;;;5.45;2.30;;;16.60;87.20;;;;;;5072612;28;20380;-50
2023/08/04 00:49:45;;;;;;;6.43;2.60;;;16.50;87.20;;;;;;5072058;28;20028;-51
2023/08/04 00:52:11;;;;;;;5.43;2.42;;;16.60;87.40;;;;;;5054816;28;20025;-49
2023/08/04 00:54:38;;;;;;;5.45;2.40;;;16.50;87.40;;;;;;5071907;28;20591;-50
2023/08/04 00:57:05;;;;;;;7.10;2.42;;;16.50;87.40;;;;;;5072517;28;20035;-50
2023/08/04 00:59:32;;;;;;;7.65;2.88;;;16.50;87.50;;;;;;5072346;28;20042;-51
2023/08/04 01:02:01;;;;;;;3.70;1.90;;;16.50;87.30;;;;;;5071771;28;20529;-52
2023/08/04 01:04:29;;;;;;;6.97;2.53;;;16.50;87.60;;;;;;5072010;28;20527;-49
2023/08/04 01:07:23;;;;;;;7.43;2.50;;;16.50;87.50;;;;;;5053677;28;20480;-50
2023/08/04 01:10:16;;;;;;;6.60;2.47;;;16.50;87.50;;;;;;5063848;28;20461;-51
2023/08/04 01:13:03;;;;;;;6.82;2.58;;;16.50;87.40;;;;;;5072479;28;20020;-49
2023/08/04 01:15:31;;;;;;;7.15;2.67;;;16.50;87.30;;;;;;5071461;28;20032;-51
2023/08/04 01:17:58;;;;;;;6.35;2.40;;;16.50;87.40;;;;;;5072320;28;20025;-49
2023/08/04 01:20:27;;;;;;;7.15;2.65;;;16.50;87.30;;;;;;5072269;28;20033;-49
2023/08/04 01:22:53;;;;;;;6.82;3.25;;;16.50;87.30;;;;;;5071637;28;20039;-50
2023/08/04 01:25:25;;;;;;;10.30;3.78;;;16.50;87.30;;;;;;5072322;28;20016;-49
2023/08/04 01:27:57;;;;;;;7.25;3.30;;;16.50;87.30;;;;;;5071785;28;20119;-52
2023/08/04 01:30:26;;;;;;;7.60;2.90;;;16.50;87.40;;;;;;5072377;28;20029;-54
2023/08/04 01:32:52;;;;;;;7.32;2.88;;;16.40;87.30;;;;;;5054038;28;20064;-50
2023/08/04 01:35:20;;;;;;;6.93;3.05;;;16.40;87.50;;;;;;5054367;28;20481;-49
2023/08/04 01:37:48;;;;;;;6.25;2.88;;;16.40;87.30;;;;;;5072062;28;20096;-52
2023/08/04 01:40:16;;;;;;;7.47;2.77;;;16.40;87.50;;;;;;5071430;28;20361;-50
2023/08/04 01:42:43;;;;;;;8.32;2.75;;;16.40;87.50;;;;;;5071581;28;20343;-49
2023/08/04 01:45:10;;;;;;;10.23;2.17;;;16.40;87.70;;;;;;5071263;28;20033;-49
2023/08/04 01:47:40;;;;;;;8.70;2.60;;;16.30;87.90;;;;;;5071911;28;20021;-49
2023/08/04 01:50:08;;;;;;;8.30;2.33;;;16.40;88.00;;;;;;5072052;28;20034;-49
2023/08/04 01:52:36;;;;;;;7.30;2.50;;;16.30;88.20;;;;;;5071548;28;20032;-51
2023/08/04 01:55:06;;;;;;;8.32;3.15;;;16.40;88.30;;;;;;5072136;28;20467;-50
2023/08/04 01:57:33;;;;;;;8.85;2.65;;;16.40;88.20;;;;;;5075220;28;20369;-51
2023/08/04 01:59:59;;;;;;;7.53;2.85;;;16.40;88.30;;;;;;5075309;28;20051;-49
2023/08/04 02:02:31;;;;;;;3.80;1.75;;;16.30;88.30;;;;;;5075623;28;20433;-49
2023/08/04 02:04:58;;;;;;;5.95;2.58;;;16.30;88.40;;;;;;5074796;28;20036;-49
2023/08/04 02:07:27;;;;;;;6.55;3.20;;;16.30;88.50;;;;;;5075818;28;20333;-49
2023/08/04 02:09:53;;;;;;;7.93;2.85;;;16.20;88.50;;;;;;5074825;28;20080;-51
2023/08/04 02:12:20;;;;;;;5.20;2.63;;;16.20;88.70;;;;;;5075533;28;20060;-52
2023/08/04 02:14:46;;;;;;;8.73;3.42;;;16.30;88.60;;;;;;5074847;28;20033;-51
2023/08/04 02:17:15;;;;;;;8.77;2.78;;;16.20;88.60;;;;;;5057393;28;20463;-49
2023/08/04 02:19:42;;;;;;;6.40;2.08;;;16.20;88.60;;;;;;5075588;28;20090;-49
2023/08/04 02:22:09;;;;;;;6.07;2.35;;;16.20;88.70;;;;;;5074680;28;20052;-50
2023/08/04 02:24:36;;;;;;;6.25;2.50;;;16.20;88.60;;;;;;5075277;28;20027;-50
2023/08/04 02:27:03;;;;;;;6.75;3.30;;;16.30;88.60;;;;;;5057529;28;20020;-50
2023/08/04 02:29:32;;;;;;;4.72;1.92;;;16.20;88.50;;;;;;5075026;28;20036;-50
2023/08/04 02:31:59;;;;;;;6.90;3.20;;;16.20;88.70;;;;;;5074343;28;20545;-49
2023/08/04 02:34:29;;;;;;;6.75;2.55;;;16.20;88.70;;;;;;5075034;28;20071;-50
2023/08/04 02:36:56;;;;;;;5.85;2.97;;;16.20;88.70;;;;;;5074144;28;20033;-49
2023/08/04 02:39:26;;;;;;;8.77;3.20;;;16.30;88.70;;;;;;5046937;28;20108;-51
2023/08/04 02:41:53;;;;;;;6.80;2.67;;;16.30;88.70;;;;;;5055080;28;20021;-49
2023/08/04 02:44:20;;;;;;;6.97;2.47;;;16.30;88.70;;;;;;5056368;28;20058;-50
2023/08/04 02:46:46;;;;;;;6.40;2.72;;;16.30;88.60;;;;;;5056877;28;20020;-51
2023/08/04 02:49:13;;;;;;;6.15;2.75;;;16.20;88.80;;;;;;5074882;28;20048;-50
2023/08/04 02:51:40;;;;;;;7.45;2.95;;;16.20;88.80;;;;;;5073985;28;20028;-50
2023/08/04 02:54:09;;;;;;;5.00;2.60;;;16.20;88.80;;;;;;5074672;28;20438;-49
2023/08/04 02:56:36;;;;;;;5.43;2.50;;;16.10;88.70;;;;;;5074530;28;20028;-49
2023/08/04 02:59:02;;;;;;;8.82;2.25;;;16.10;88.80;;;;;;5055764;28;20369;-51
2023/08/04 03:01:29;;;;;;;10.18;2.80;;;16.10;88.90;;;;;;5074560;28;20036;-49
2023/08/04 03:03:57;;;;;;;9.00;3.67;;;16.10;89.00;;;;;;5074101;28;20028;-51
2023/08/04 03:06:26;;;;;;;5.05;2.65;;;16.10;89.20;;;;;;5055813;28;20469;-49
2023/08/04 03:08:54;;;;;;;7.35;3.30;;;16.10;89.50;;;;;;5073736;28;20319;-49
2023/08/04 03:11:21;;;;;;;7.75;2.47;;;16.10;89.40;;;;;;5074441;28;20028;-50
2023/08/04 03:13:47;;;;;;;6.28;2.20;;;16.10;89.60;;;;;;5074426;28;20025;-48
2023/08/04 03:16:14;;;;;;;6.32;2.58;;;16.10;89.70;;;;;;5073493;28;20029;-49
2023/08/04 03:18:41;;;;;;;6.45;2.22;;;16.10;89.80;;;;;;5056846;28;20039;-49
2023/08/04 03:21:12;;;;;;;7.47;2.50;;;16.20;89.90;;;;;;5073322;28;20055;-49
2023/08/04 03:23:39;;;;;;;6.78;2.85;;;16.20;89.90;;;;;;5074250;28;20109;-50
2023/08/04 03:26:08;;;;;;;6.57;2.42;;;16.10;89.80;;;;;;5074242;28;20386;-50
2023/08/04 03:28:35;;;;;;;5.78;3.22;;;16.10;90.00;;;;;;5074364;28;20048;-50
2023/08/04 03:31:07;;;;;;;5.72;3.10;;;16.00;90.00;;;;;;5073516;28;20089;-49
2023/08/04 03:33:35;;;;;;;7.70;3.40;;;16.10;90.20;;;;;;5055783;28;20024;-48
2023/08/04 03:36:05;;;;;;;10.02;2.88;;;16.10;90.30;;;;;;5073871;28;20048;-49
2023/08/04 03:38:32;;;;;;;6.82;2.35;;;16.10;90.40;;;;;;5051953;28;20064;-51
2023/08/04 03:40:59;;;;;;;5.28;2.30;;;16.10;90.60;;;;;;5053520;28;20029;-49
2023/08/04 03:43:28;;;;;;;5.65;2.30;;;16.10;90.60;;;;;;5053643;28;20385;-48
2023/08/04 03:45:55;;;;;;;4.77;2.07;;;16.20;90.70;;;;;;5069328;28;20040;-50
2023/08/04 03:48:21;;;;;;;6.68;2.28;;;16.20;90.70;;;;;;5056043;28;20710;-48
2023/08/04 03:50:48;;;;;;;6.05;1.95;;;16.10;90.70;;;;;;5073071;28;20115;-48
2023/08/04 03:53:17;;;;;;;6.53;2.40;;;16.10;90.60;;;;;;5073636;28;20729;-49
2023/08/04 03:55:43;;;;;;;7.78;2.17;;;16.20;90.70;;;;;;5072805;28;20041;-49
2023/08/04 03:58:13;;;;;;;6.78;2.55;;;16.10;90.60;;;;;;5073562;28;20029;-52
2023/08/04 04:00:39;;;;;;;4.03;2.38;;;16.20;90.80;;;;;;5072742;28;20029;-49
2023/08/04 04:03:06;;;;;;;7.22;2.65;;;16.10;90.80;;;;;;5073586;28;20081;-53
2023/08/04 04:05:35;;;;;;;3.60;2.15;;;16.10;90.80;;;;;;5073253;28;20029;-48
2023/08/04 04:08:02;;;;;;;6.13;2.67;;;16.20;90.90;;;;;;5072608;28;20036;-45
2023/08/04 04:10:29;;;;;;;7.35;2.08;;;16.20;90.90;;;;;;5073213;28;20647;-43
2023/08/04 04:12:56;;;;;;;3.25;1.83;;;16.20;90.90;;;;;;5055585;28;20033;-45
2023/08/04 04:15:22;;;;;;;4.28;1.67;;;16.10;90.90;;;;;;5072275;28;20177;-44
2023/08/04 04:17:49;;;;;;;8.45;2.20;;;16.20;91.00;;;;;;5053982;28;20048;-45
2023/08/04 04:20:18;;;;;;;5.53;2.13;;;16.10;91.10;;;;;;5055324;28;20186;-45
2023/08/04 04:22:45;;;;;;;6.53;2.28;;;16.10;91.30;;;;;;5072268;28;20020;-44
2023/08/04 04:25:11;;;;;;;6.45;2.30;;;16.20;91.40;;;;;;5073048;28;20330;-45
2023/08/04 04:27:38;;;;;;;7.68;2.25;;;16.10;91.30;;;;;;5055410;28;20024;-44
2023/08/04 04:30:08;;;;;;;4.47;1.80;;;16.10;91.50;;;;;;5072898;28;20030;-44
2023/08/04 04:32:35;;;;;;;3.70;1.70;;;16.10;91.40;;;;;;5072336;28;20060;-44
2023/08/04 04:35:04;;;;;;;7.00;2.63;;;16.10;91.40;;;;;;5072594;28;20611;-44
2023/08/04 04:37:31;;;;;;;6.65;2.30;;;16.10;91.40;;;;;;5072785;28;20469;-46
2023/08/04 04:39:58;;;;;;;6.43;1.90;;;16.10;91.60;;;;;;5072510;28;20024;-44
2023/08/04 04:42:24;;;;;;;5.45;2.15;;;16.10;91.70;;;;;;5053993;28;20059;-44
2023/08/04 04:44:54;;;;;;;8.45;2.20;;;16.10;91.80;;;;;;5072827;28;20025;-44
2023/08/04 04:47:21;;;;;;;3.03;1.30;;;16.10;91.90;;;;;;5072661;28;20025;-44
2023/08/04 04:49:48;;;;;;;5.15;1.52;;;16.00;91.50;;;;;;5072028;28;20029;-45
2023/08/04 04:52:35;;;;;;;3.17;1.23;;;16.00;91.60;;;;;;5054745;28;20075;-44
2023/08/04 04:55:04;;;;;;;2.95;1.20;;;16.00;91.30;;;;;;5071941;28;20365;-45
2023/08/04 04:57:39;;;;;;;3.47;1.25;;;16.00;91.20;;;;;;5072576;28;20033;-45
2023/08/04 05:00:07;;;;;;;3.95;1.25;;;16.00;91.30;;;;;;5071836;28;20016;-44
2023/08/04 05:02:35;;;;;;;3.42;1.38;;;16.10;91.20;;;;;;5054830;28;20521;-46
2023/08/04 05:05:03;;;;;;;3.72;1.48;;;16.10;91.10;;;;;;5071982;28;20033;-45
2023/08/04 05:07:32;;;;;;;2.72;1.02;;;16.20;91.10;;;;;;5072644;28;20024;-45
2023/08/04 05:09:59;;;;;;;4.20;1.23;;;16.20;91.20;;;;;;5054861;28;20119;-45
2023/08/04 05:12:26;;;;;;;5.22;1.80;;;16.20;91.20;;;;;;5071787;28;20159;-45
2023/08/04 05:14:53;;;;;;;3.90;1.58;;;16.20;91.10;;;;;;5055030;28;20025;-45
2023/08/04 05:17:18;;;;;;;4.15;1.42;;;16.30;91.30;;;;;;5072437;28;20051;-45
2023/08/04 05:19:45;;;;;;;3.60;1.48;;;16.30;91.30;;;;;;5054864;28;20524;-45
2023/08/04 05:22:13;;;;;;;4.63;1.42;;;16.40;91.20;;;;;;5071545;28;20043;-45
2023/08/04 05:24:38;;;;;;;4.47;1.58;;;16.40;91.30;;;;;;5072316;28;20043;-48
2023/08/04 05:27:08;;;;;;;2.97;1.48;;;16.50;91.30;;;;;;5053873;28;20021;-44
2023/08/04 05:29:37;;;;;;;2.03;1.02;;;16.60;91.40;;;;;;5072806;28;20033;-45
2023/08/04 05:32:04;;;;;;;5.20;1.63;;;16.60;91.40;;;;;;5076403;28;20028;-45
2023/08/04 05:34:31;;;;;;;5.85;1.45;;;16.60;91.10;;;;;;5058370;28;20048;-46
2023/08/04 05:36:58;;;;;;;14.43;2.75;;;16.70;91.20;;;;;;5075254;28;20039;-45
2023/08/04 05:39:24;;;;;;;2.75;1.23;;;16.70;91.00;;;;;;5075951;28;20029;-46
2023/08/04 05:41:51;;;;;;;5.85;1.48;;;16.70;90.80;;;;;;5075052;28;20344;-45
2023/08/04 05:44:18;;;;;;;7.10;1.50;;;16.80;90.90;;;;;;5076213;28;20028;-45
2023/08/04 05:46:45;;;;;;;4.97;1.48;;;16.80;90.90;;;;;;5075800;28;20399;-45
2023/08/04 05:49:12;;;;;;;4.05;1.30;;;16.80;90.70;;;;;;5076043;28;20107;-46
2023/08/04 05:51:37;;;;;;;4.63;1.42;;;16.80;90.40;;;;;;5075083;28;20041;-45
2023/08/04 05:54:04;;;;;;;3.83;1.70;;;16.90;90.60;;;;;;5075805;28;20032;-47
2023/08/04 05:56:30;;;;;;;4.13;1.75;;;16.90;90.50;;;;;;5075987;28;20431;-45
2023/08/04 05:58:57;;;;;;;5.60;1.38;;;16.90;90.40;;;;;;5075742;28;20052;-45
2023/08/04 06:01:27;;;;;;;5.20;1.10;;;16.90;90.40;;;;;;5075040;28;20040;-48
2023/08/04 06:03:54;;;;;;;7.47;1.30;;;16.90;90.30;;;;;;5058041;28;20024;-46
2023/08/04 06:06:21;;;;;;;3.85;1.00;;;16.70;90.00;;;;;;5074968;28;20096;-46
2023/08/04 06:08:48;;;;;;;3.75;1.08;;;16.70;90.10;;;;;;5075720;28;20023;-46
2023/08/04 06:11:17;;;;;;;2.92;1.33;;;16.70;90.00;;;;;;5075399;28;20028;-45
2023/08/04 06:13:43;;;;;;;3.67;1.63;;;16.70;89.90;;;;;;5075336;28;20035;-45
2023/08/04 06:16:10;;;;;;;5.15;1.80;;;16.70;89.80;;;;;;5056675;28;20032;-47
2023/08/04 06:18:40;;;;;;;3.42;1.80;;;16.60;89.90;;;;;;5074971;28;20353;-45
2023/08/04 06:21:07;;;;;;;;;;;16.60;89.90;;;;;;5075395;28;20334;-45
2023/08/04 06:23:33;;;;;;;1.85;0.80;;;16.60;89.90;;;;;;5075022;28;19935;-46
2023/08/04 06:25:59;;;;;;;2.42;1.15;;;16.70;90.10;;;;;;5074846;28;20024;-46
2023/08/04 06:28:26;;;;;;;2.42;1.38;;;16.80;89.80;;;;;;5075381;28;20077;-46
2023/08/04 06:30:53;;;;;;;3.53;1.02;;;16.80;89.50;;;;;;5074376;28;20595;-46
2023/08/04 06:33:20;;;;;;;3.40;1.40;;;16.80;89.40;;;;;;5074649;28;20036;-46
2023/08/04 06:35:47;;;;;;;2.42;1.05;;;16.80;89.10;;;;;;5074089;28;20457;-46
2023/08/04 06:38:14;;;;;;;4.03;1.27;;;16.80;89.10;;;;;;5074498;28;20032;-46
2023/08/04 06:40:43;;;;;;;4.53;1.33;;;16.90;89.20;;;;;;5056405;28;20031;-47
2023/08/04 06:43:10;;;;;;;3.45;1.33;;;16.90;89.00;;;;;;5051474;28;20070;-46
2023/08/04 06:45:37;;;;;;;4.78;1.13;;;16.80;88.70;;;;;;5056728;28;20032;-48
2023/08/04 06:48:07;;;;;;;3.60;1.33;;;16.80;88.60;;;;;;5074569;28;20024;-47
2023/08/04 06:50:34;;;;;;;2.55;1.00;;;16.90;88.80;;;;;;5074226;28;20044;-46
2023/08/04 06:53:01;;;;;;;6.85;1.80;;;16.90;88.80;;;;;;5073914;28;20040;-46
2023/08/04 06:55:28;;;;;;;5.25;1.52;;;16.90;89.00;;;;;;5056624;28;20052;-46
2023/08/04 06:57:55;;;;;;;3.75;1.60;;;16.90;89.20;;;;;;5074339;28;20067;-47
2023/08/04 07:00:22;;;;;;;3.90;2.15;;;16.90;89.10;;;;;;5055590;28;20043;-47
2023/08/04 07:02:49;;;;;;;3.47;1.40;;;16.90;89.30;;;;;;5056338;28;20024;-48
2023/08/04 07:05:16;;;;;;;4.07;1.73;;;17.00;89.50;;;;;;5074065;28;20445;-47
2023/08/04 07:07:44;;;;;;;4.45;1.38;;;17.10;89.40;;;;;;5073495;28;20029;-48
2023/08/04 07:10:11;;;;;;;3.97;2.15;;;17.10;89.40;;;;;;5055300;28;20441;-47
2023/08/04 07:12:38;;;;;;;5.25;1.65;;;17.20;89.60;;;;;;5073853;28;20020;-47
2023/08/04 07:15:04;;;;;;;3.28;1.38;;;17.30;89.50;;;;;;5073835;28;20034;-50
2023/08/04 07:17:31;;;;;;;3.20;1.40;;;17.40;89.50;;;;;;5056290;28;20491;-47
2023/08/04 07:19:58;;;;;;;5.78;1.50;;;17.40;89.30;;;;;;5073591;28;20032;-47
2023/08/04 07:22:28;;;;;;;3.42;1.45;;;17.40;89.30;;;;;;5074126;28;20027;-48
2023/08/04 07:24:54;;;;;;;5.63;1.77;;;17.40;89.20;;;;;;5074317;28;20025;-49
2023/08/04 07:27:21;;;;;;;3.15;1.67;;;17.40;89.80;;;;;;5073564;28;20115;-48
2023/08/04 07:29:48;;;;;;;5.63;2.08;;;17.40;89.60;;;;;;5073979;28;20086;-47
2023/08/04 07:32:15;;;;;;;4.78;1.90;;;17.40;89.10;;;;;;5056301;28;20090;-47
2023/08/04 07:34:41;;;;;;;4.53;1.67;;;17.30;88.90;;;;;;5054847;28;20059;-48
2023/08/04 07:37:11;;;;;;;4.45;2.38;;;17.30;89.00;;;;;;5074006;28;20036;-48
2023/08/04 07:39:38;;;;;;;6.40;2.22;;;17.40;89.10;;;;;;5055485;28;20488;-47
2023/08/04 07:42:05;;;;;;;4.00;1.60;;;17.30;88.90;;;;;;5073767;28;20705;-47
2023/08/04 07:44:34;;;;;;;5.78;1.90;;;17.30;88.90;;;;;;5073678;28;20056;-47
2023/08/04 07:47:01;;;;;;;5.82;2.60;;;17.40;89.20;;;;;;5073178;28;20074;-47
2023/08/04 07:49:28;;;;;;;6.13;2.78;;;17.50;89.30;;;;;;5073601;28;20032;-49
2023/08/04 07:51:55;;;;;;;5.15;2.63;;;17.60;89.20;;;;;;5073403;28;20031;-49
2023/08/04 07:54:22;;;;;;;6.38;1.98;;;17.70;88.70;;;;;;5073257;28;20048;-48
2023/08/04 07:56:49;;;;;;;6.95;2.10;;;17.90;88.50;;;;;;5072903;28;20039;-48
2023/08/04 07:59:16;;;;;;;6.38;2.20;;;18.10;87.70;;;;;;5073384;28;20035;-47
2023/08/04 08:01:42;;;;;;;4.30;1.90;;;18.30;87.10;;;;;;5054559;28;20021;-48
2023/08/04 08:04:10;;;;;;;4.30;1.92;;;18.40;86.40;;;;;;5073451;28;20037;-48
2023/08/04 08:06:39;;;;;;;5.55;1.70;;;18.60;85.90;;;;;;5073404;28;20027;-48
2023/08/04 08:09:12;;;;;;;;;;;18.70;85.10;;;;;;5072946;28;20099;-48
2023/08/04 08:11:39;;;;;;;3.78;1.40;;;18.80;82.70;;;;;;5055521;28;20322;-48
2023/08/04 08:14:06;;;;;;;5.43;1.35;;;18.70;81.70;;;;;;5055705;28;20056;-48
2023/08/04 08:16:33;;;;;;;3.55;1.45;;;18.70;81.70;;;;;;5069781;28;20054;-50
2023/08/04 08:19:01;;;;;;;3.38;1.50;;;18.60;81.10;;;;;;5072193;28;20028;-49
2023/08/04 08:21:31;;;;;;;5.40;1.67;;;18.60;81.20;;;;;;5054399;28;20050;-48
2023/08/04 08:23:58;;;;;;;6.43;1.50;;;18.70;81.20;;;;;;5055292;28;20017;-49
2023/08/04 08:26:24;;;;;;;5.30;1.60;;;18.60;80.90;;;;;;5054609;28;20089;-48
2023/08/04 08:28:56;;;;;;;4.05;1.67;;;18.50;81.50;;;;;;5073074;28;20051;-48
2023/08/04 08:31:22;;;;;;;7.05;1.98;;;18.50;81.90;;;;;;5039328;28;20493;-48
2023/08/04 08:33:48;;;;;;;3.53;1.55;;;18.40;82.60;;;;;;5072232;28;20139;-48
2023/08/04 08:36:14;;;;;;;4.68;1.80;;;18.40;83.30;;;;;;5073226;28;20464;-48
2023/08/04 08:38:43;;;;;;;7.82;2.13;;;18.40;83.40;;;;;;5072901;28;20433;-50
2023/08/04 08:41:13;;;;;;;5.22;2.15;;;18.30;83.10;;;;;;5072674;28;20036;-49
2023/08/04 08:43:41;;;;;;;5.50;1.77;;;18.10;83.70;;;;;;5072628;28;20588;-48
2023/08/04 08:46:07;;;;;;;4.43;1.75;;;18.00;83.70;;;;;;5055300;28;20032;-52
2023/08/04 08:48:38;;;;;;;4.72;1.40;;;17.90;84.10;;;;;;5072293;28;20024;-48
2023/08/04 08:51:09;;;;;;;7.00;2.13;;;17.90;84.80;;;;;;5054743;28;20472;-48
2023/08/04 08:53:38;;;;;;;6.30;2.30;;;18.00;84.70;;;;;;5053755;28;20048;-49
2023/08/04 08:56:09;;;;;;;5.53;1.88;;;18.10;84.40;;;;;;5072929;28;20336;-50
2023/08/04 08:58:36;;;;;;;5.75;2.63;;;18.40;84.50;;;;;;5071727;28;20035;-48
2023/08/04 09:01:04;;;;;;;6.32;2.10;;;18.40;84.10;;;;;;5055543;28;20082;-49
2023/08/04 09:03:38;;;;;;;10.18;2.58;;;18.50;83.70;;;;;;5072904;28;20052;-49
2023/08/04 09:06:05;;;;;;;6.60;2.08;;;18.50;84.20;;;;;;5071343;28;20480;-48
2023/08/04 09:08:36;;;;;;;6.80;2.15;;;18.50;84.50;;;;;;5054860;28;20067;-51
2023/08/04 09:11:04;;;;;;;8.80;2.60;;;18.60;84.50;;;;;;5071877;28;20036;-48
2023/08/04 09:13:31;;;;;;;7.40;3.20;;;18.60;83.70;;;;;;5072373;28;20494;-50
2023/08/04 09:15:58;;;;;;;6.53;2.53;;;18.60;83.40;;;;;;5054016;28;20167;-49
2023/08/04 09:18:38;;;;;;;8.38;2.25;;;18.70;83.20;;;;;;5072279;28;20095;-49
2023/08/04 09:21:12;;;;;;;7.18;2.40;;;18.70;83.40;;;;;;5072232;28;20066;-48
2023/08/04 09:23:56;;;;;;;8.32;1.70;;;18.80;83.20;;;;;;5071804;28;20020;-49
2023/08/04 09:26:42;;;;;;;5.60;1.77;;;18.90;81.80;;;;;;5072753;28;20103;-49
2023/08/04 09:29:09;;;;;;;9.27;1.88;;;19.00;79.80;;;;;;5054670;28;20435;-49
2023/08/04 09:31:37;;;;;;;6.15;1.30;;;19.10;79.40;;;;;;5071630;28;20016;-49
2023/08/04 09:34:08;;;;;;;7.50;1.95;;;19.40;78.60;;;;;;5072146;28;20040;-51
2023/08/04 09:36:48;;;;;;;4.20;1.52;;;19.40;77.30;;;;;;5054794;28;20111;-49
2023/08/04 09:39:17;;;;;;;8.20;2.45;;;19.60;76.40;;;;;;5071478;28;20365;-49
2023/08/04 09:41:46;;;;;;;8.03;1.63;;;19.50;75.90;;;;;;5071357;28;20025;-52
2023/08/04 09:44:14;;;;;;;6.93;1.40;;;19.60;76.30;;;;;;5054451;28;20036;-49
2023/08/04 09:46:54;;;;;;;7.40;1.27;;;19.60;76.20;;;;;;5054715;28;20109;-48
2023/08/04 09:49:21;;;;;;;;;;;19.60;76.00;;;;;;5041423;28;20040;-49
2023/08/04 09:51:51;;;;;;;7.95;1.77;;;19.60;76.70;;;;;;5052051;28;19904;-49
2023/08/04 09:54:18;;;;;;;;;;;19.70;77.10;;;;;;5071920;28;20025;-51
2023/08/04 09:56:46;;;;;;;5.10;1.75;;;20.00;77.60;;;;;;5072331;28;19912;-49
2023/08/04 09:59:14;;;;;;;6.97;1.93;;;20.30;75.10;;;;;;5040576;28;20029;-49
2023/08/04 10:01:40;;;;;;;7.18;1.55;;;20.50;73.60;;;;;;5051990;28;20028;-49
2023/08/04 10:04:08;;;;;;;3.45;1.25;;;21.00;73.00;;;;;;5034322;28;20032;-49
2023/08/04 10:06:34;;;;;;;4.25;1.50;;;21.30;71.10;;;;;;5052097;28;20455;-49
2023/08/04 10:09:02;;;;;;;4.80;1.25;;;21.40;71.40;;;;;;5069184;28;20040;-48
2023/08/04 10:11:29;;;;;;;6.55;2.22;;;21.50;70.00;;;;;;5072006;28;20020;-50
2023/08/04 10:13:56;;;;;;;6.05;1.80;;;21.70;70.20;;;;;;5054295;28;20024;-49
2023/08/04 10:16:33;;;;;;;6.88;1.65;;;21.90;70.20;;;;;;5072913;28;20043;-49
2023/08/04 10:19:06;;;;;;;9.50;1.98;;;21.90;67.40;;;;;;5075173;28;20067;-49
2023/08/04 10:21:53;;;;;;;4.80;1.90;;;22.00;67.90;;;;;;5074932;28;20024;-49
2023/08/04 10:24:22;;;;;;;6.32;1.77;;;22.30;65.60;;;;;;5075614;28;20715;-49
2023/08/04 10:26:51;;;;;;;4.93;1.23;;;22.60;65.20;;;;;;5075080;28;20033;-51
2023/08/04 10:29:18;;;;;;;8.88;1.85;;;22.30;66.60;;;;;;5075278;28;20037;-48
2023/08/04 10:31:55;;;;;;;7.45;1.58;;;21.50;67.90;;;;;;5074632;28;20021;-49
2023/08/04 10:34:47;;;;;;;4.40;1.73;;;20.90;69.20;;;;;;5074995;28;20127;-49
2023/08/04 10:37:18;;;;;;;8.43;2.13;;;20.80;71.60;;;;;;5071358;28;20072;-52
2023/08/04 10:39:56;;;;;;;8.25;2.25;;;21.00;71.30;;;;;;5056744;28;20082;-49
2023/08/04 10:42:24;;;;;;;5.82;1.35;;;20.90;71.10;;;;;;5075078;28;20024;-49
2023/08/04 10:45:04;;;;;;;7.15;1.92;;;20.50;71.50;;;;;;5057194;28;20388;-49
2023/08/04 10:47:46;;;;;;;10.00;2.50;;;20.30;72.50;;;;;;5074278;28;20028;-48
2023/08/04 10:50:14;;;;;;;6.93;2.45;;;20.40;74.40;;;;;;5074732;28;20157;-54
2023/08/04 10:52:42;;;;;;;8.52;1.83;;;20.70;72.80;;;;;;5074884;28;20044;-52
2023/08/04 10:55:13;;;;;;;6.88;2.38;;;20.50;71.70;;;;;;5074791;28;20450;-49
2023/08/04 10:57:44;;;;;;;4.80;1.63;;;20.40;71.30;;;;;;5074152;28;20048;-49
2023/08/04 11:00:11;;;;;;;11.07;2.08;;;21.00;71.60;;;;;;5074502;28;20052;-52
2023/08/04 11:02:38;;;;;;;7.68;2.13;;;21.20;69.50;;;;;;5074412;28;20031;-50
2023/08/04 11:05:11;;;;;;;4.40;1.42;;;20.70;71.30;;;;;;5073882;28;20034;-49
2023/08/04 11:07:48;;;;;;;10.60;2.05;;;20.40;71.10;;;;;;5074801;28;20029;-50
2023/08/04 11:10:17;;;;;;;5.07;1.58;;;20.60;70.50;;;;;;5074155;28;20055;-49
2023/08/04 11:12:44;;;;;;;7.87;2.20;;;20.40;69.60;;;;;;5073897;28;20080;-53
2023/08/04 11:15:11;;;;;;;8.23;2.00;;;20.40;72.30;;;;;;5073429;28;20028;-50
2023/08/04 11:17:40;;;;;;;5.30;1.60;;;20.40;72.10;;;;;;5056558;28;20047;-49
2023/08/04 11:20:11;;;;;;;6.93;2.05;;;20.20;73.10;;;;;;5073504;28;20458;-52
2023/08/04 11:22:43;;;;;;;5.63;2.38;;;20.60;71.30;;;;;;5074767;28;20631;-50
2023/08/04 11:25:10;;;;;;;5.70;1.98;;;20.80;69.90;;;;;;5073817;28;20037;-51
2023/08/04 11:27:37;;;;;;;6.68;1.75;;;20.60;71.60;;;;;;5054186;28;20020;-55
2023/08/04 11:30:02;;;;;;;3.92;1.73;;;20.50;72.60;;;;;;5073013;28;20357;-51
2023/08/04 11:32:28;;;;;;;8.32;2.70;;;20.60;71.80;;;;;;5055945;28;20032;-53
2023/08/04 11:34:56;;;;;;;7.72;1.80;;;20.30;72.30;;;;;;5073205;28;20052;-49
2023/08/04 11:37:23;;;;;;;4.82;1.75;;;20.20;71.40;;;;;;5055607;28;20427;-50
2023/08/04 11:39:50;;;;;;;6.10;1.90;;;19.90;73.30;;;;;;5072545;28;20045;-50
2023/08/04 11:42:19;;;;;;;5.45;1.65;;;20.20;75.30;;;;;;5055296;28;20032;-49
2023/08/04 11:44:46;;;;;;;7.47;1.85;;;20.40;75.50;;;;;;5073476;28;20090;-52
2023/08/04 11:47:17;;;;;;;6.15;1.83;;;20.40;75.60;;;;;;5054980;28;20052;-52
2023/08/04 11:49:44;;;;;;;6.05;1.88;;;20.80;74.80;;;;;;5050776;28;20024;-54
2023/08/04 11:52:13;;;;;;;10.15;2.20;;;21.20;73.40;;;;;;5071521;28;20037;-49
2023/08/04 11:54:58;;;;;;;4.18;1.40;;;21.40;72.00;;;;;;5073141;28;20024;-49
2023/08/04 11:57:26;;;;;;;5.45;1.38;;;21.60;71.80;;;;;;5052972;28;20068;-54
2023/08/04 11:59:53;;;;;;;4.95;1.88;;;21.60;69.00;;;;;;5054388;28;20116;-50
2023/08/04 12:02:21;;;;;;;3.65;1.20;;;21.50;69.50;;;;;;5055604;28;20032;-51
2023/08/04 12:05:10;;;;;;;5.80;1.42;;;21.50;70.00;;;;;;5073177;28;20107;-57
2023/08/04 12:07:37;;;;;;;;;;;21.70;68.20;;;;;;5073783;28;20629;-52
2023/08/04 12:10:06;;;;;;;6.57;1.27;;;21.60;67.90;;;;;;5072620;28;19938;-49
2023/08/04 12:12:37;;;;;;;5.57;1.75;;;21.50;68.30;;;;;;5055585;28;20029;-50
2023/08/04 12:15:05;;;;;;;7.63;1.77;;;21.10;67.30;;;;;;5055870;28;20066;-52
2023/08/04 12:17:49;;;;;;;8.25;2.40;;;21.40;69.60;;;;;;5055279;28;20021;-49
2023/08/04 12:20:16;;;;;;;3.47;1.20;;;21.60;69.40;;;;;;5055231;28;20032;-53
2023/08/04 12:22:44;;;;;;;3.42;1.23;;;21.50;66.70;;;;;;5072963;28;20024;-51
2023/08/04 12:25:13;;;;;;;4.53;1.40;;;21.40;67.90;;;;;;5073004;28;20048;-51
2023/08/04 12:27:40;;;;;;;5.30;1.63;;;21.40;67.30;;;;;;5073096;28;20040;-50
2023/08/04 12:30:07;;;;;;;5.40;1.30;;;21.50;67.20;;;;;;5072178;28;20039;-51
2023/08/04 12:32:34;;;;;;;4.30;1.08;;;21.50;68.20;;;;;;5073036;28;20025;-49
2023/08/04 12:35:02;;;;;;;4.75;1.10;;;21.50;68.20;;;;;;5072930;28;20492;-49
2023/08/04 12:37:29;;;;;;;5.38;1.30;;;21.40;68.80;;;;;;5069651;28;20047;-51
2023/08/04 12:39:58;;;;;;;4.55;1.42;;;21.60;70.20;;;;;;5071889;28;20524;-52
2023/08/04 12:42:25;;;;;;;2.78;0.98;;;21.90;69.00;;;;;;5055000;28;20037;-50
2023/08/04 12:44:52;;;;;;;3.47;0.90;;;21.90;68.00;;;;;;5072266;28;20081;-49
2023/08/04 12:47:18;;;;;;;2.63;1.17;;;21.90;68.50;;;;;;5072087;28;20089;-53
2023/08/04 12:49:44;;;;;;;3.83;0.70;;;21.60;68.20;;;;;;5072328;28;20033;-51
2023/08/04 12:52:11;;;;;;;2.63;1.23;;;21.40;68.90;;;;;;5071951;28;20085;-50
2023/08/04 12:54:38;;;;;;;3.40;0.98;;;21.20;69.90;;;;;;5072819;28;20024;-51